Time;durP1;ratioP1;P1;durP2;ratioP2;P2;SDS_P1;SDS_P2;PMS_P1;PMS_P2;Temp;Humidity;BMP_temperature;BMP_pressure;BME280_temperature;BME280_humidity;BME280_pressure;Samples;Min_cycle;Max_cycle;Signal;HPM_P1;HPM_P2
2023/11/08 00:00:49;;;;;;;4.07;1.90;;;6.10;1.00;;;;;;5034507;28;20221;-40
2023/11/08 00:03:15;;;;;;;4.87;2.20;;;6.20;1.00;;;;;;5034954;28;20569;-39
2023/11/08 00:05:44;;;;;;;2.53;2.07;;;6.10;1.00;;;;;;5035275;28;20421;-39
2023/11/08 00:08:09;;;;;;;3.73;1.60;;;6.10;1.00;;;;;;5034169;28;20520;-44
2023/11/08 00:10:35;;;;;;;4.93;2.00;;;6.10;1.00;;;;;;5034711;28;20437;-41
2023/11/08 00:13:01;;;;;;;3.40;1.90;;;6.10;1.00;;;;;;5035690;28;20635;-39
2023/11/08 00:15:28;;;;;;;7.97;3.10;;;6.00;1.00;;;;;;5033045;28;20421;-47
2023/11/08 00:17:54;;;;;;;3.50;1.80;;;6.00;1.00;;;;;;5034344;28;20233;-39
2023/11/08 00:20:20;;;;;;;4.57;1.83;;;6.00;1.00;;;;;;5035044;28;20499;-41
2023/11/08 00:22:46;;;;;;;4.47;2.53;;;6.00;1.00;;;;;;5034968;28;20844;-39
2023/11/08 00:25:12;;;;;;;7.33;2.00;;;6.00;1.00;;;;;;5034904;28;20483;-40
2023/11/08 00:27:37;;;;;;;3.57;2.13;;;5.90;1.00;;;;;;5034368;28;20224;-39
2023/11/08 00:30:05;;;;;;;6.40;3.57;;;6.00;1.00;;;;;;5034211;28;20199;-41
2023/11/08 00:32:30;;;;;;;3.83;1.93;;;5.90;1.00;;;;;;5035156;28;20221;-42
2023/11/08 00:34:56;;;;;;;3.40;2.23;;;6.00;1.00;;;;;;5037979;28;20525;-42
2023/11/08 00:37:23;;;;;;;3.23;1.93;;;6.00;1.00;;;;;;5037941;28;20218;-42
2023/11/08 00:39:49;;;;;;;4.90;2.20;;;5.90;36.70;;;;;;5037294;28;20373;-40
2023/11/08 00:42:15;;;;;;;3.80;1.90;;;6.00;56.90;;;;;;5037283;28;20969;-45
2023/11/08 00:44:41;;;;;;;5.07;1.90;;;6.20;36.00;;;;;;5038280;28;20273;-42
2023/11/08 00:47:07;;;;;;;3.80;1.93;;;6.20;99.90;;;;;;5038031;28;20272;-38
2023/11/08 00:49:33;;;;;;;2.40;1.70;;;6.30;99.90;;;;;;5053403;28;20785;-40
2023/11/08 00:52:00;;;;;;;4.43;1.90;;;6.30;99.90;;;;;;5038462;28;20536;-40
2023/11/08 00:54:29;;;;;;;4.13;2.10;;;6.30;99.90;;;;;;5037492;28;20428;-41
2023/11/08 00:56:55;;;;;;;3.47;1.93;;;6.30;99.90;;;;;;5036938;28;20691;-42
2023/11/08 00:59:21;;;;;;;3.47;1.60;;;6.30;99.90;;;;;;5038004;28;20457;-39
2023/11/08 01:01:47;;;;;;;6.73;2.17;;;6.30;99.90;;;;;;5037856;28;20753;-40
2023/11/08 01:04:13;;;;;;;6.80;1.97;;;6.30;99.90;;;;;;5036850;28;20515;-38
2023/11/08 01:06:39;;;;;;;3.73;2.20;;;6.30;99.90;;;;;;5038136;28;20791;-40
2023/11/08 01:09:07;;;;;;;3.00;2.20;;;6.30;1.00;;;;;;5037914;28;20449;-44
2023/11/08 01:11:33;;;;;;;6.60;2.10;;;6.40;1.00;;;;;;5037283;28;20910;-38
2023/11/08 01:14:01;;;;;;;2.90;1.93;;;6.30;1.00;;;;;;5037577;28;20475;-40
2023/11/08 01:16:30;;;;;;;3.30;2.13;;;6.30;1.00;;;;;;5037537;28;20435;-41
2023/11/08 01:18:56;;;;;;;4.07;1.90;;;6.20;1.00;;;;;;5037171;28;20429;-39
2023/11/08 01:21:22;;;;;;;3.40;2.00;;;6.20;1.00;;;;;;5037848;28;20928;-40
2023/11/08 01:23:48;;;;;;;4.70;2.30;;;6.10;1.00;;;;;;5036917;28;20191;-41
2023/11/08 01:26:14;;;;;;;4.77;2.10;;;6.10;1.00;;;;;;5036386;28;20567;-39
2023/11/08 01:28:45;;;;;;;2.80;2.20;;;6.00;1.00;;;;;;5037687;28;20429;-39
2023/11/08 01:31:10;;;;;;;2.90;1.50;;;6.00;1.00;;;;;;5038019;28;20421;-39
2023/11/08 01:33:36;;;;;;;7.80;2.23;;;6.00;1.00;;;;;;5036635;28;20495;-38
2023/11/08 01:36:03;;;;;;;2.70;1.80;;;5.90;1.00;;;;;;5037945;28;20218;-41
2023/11/08 01:38:28;;;;;;;6.17;2.40;;;5.80;1.00;;;;;;5037338;28;20774;-39
2023/11/08 01:40:54;;;;;;;2.87;1.60;;;5.70;1.00;;;;;;5035786;28;20634;-40
2023/11/08 01:43:33;;;;;;;2.67;2.00;;;5.70;1.00;;;;;;5034892;28;20504;-39
2023/11/08 01:46:12;;;;;;;7.10;1.90;;;5.70;5.60;;;;;;5035411;28;20178;-42
2023/11/08 01:48:40;;;;;;;3.57;1.70;;;5.70;12.20;;;;;;5035935;28;20429;-40
2023/11/08 01:51:06;;;;;;;4.23;2.43;;;5.70;36.50;;;;;;5037496;28;20448;-40
2023/11/08 01:53:37;;;;;;;5.50;1.90;;;5.60;49.90;;;;;;5036758;28;20479;-40
2023/11/08 01:56:06;;;;;;;6.53;1.87;;;5.70;44.20;;;;;;5037358;28;20679;-40
2023/11/08 01:58:38;;;;;;;2.13;1.70;;;5.70;62.50;;;;;;5036713;28;20433;-39
2023/11/08 02:01:08;;;;;;;4.90;2.07;;;5.60;99.90;;;;;;5036020;28;20512;-38
2023/11/08 02:03:35;;;;;;;3.23;1.43;;;5.60;99.90;;;;;;5036217;28;20533;-40
2023/11/08 02:06:02;;;;;;;3.30;1.80;;;5.60;99.90;;;;;;5036268;28;20421;-39
2023/11/08 02:08:28;;;;;;;2.60;1.70;;;5.60;99.90;;;;;;5037034;28;20495;-39
2023/11/08 02:10:54;;;;;;;4.63;1.90;;;5.50;99.90;;;;;;5036103;28;20433;-39
2023/11/08 02:13:21;;;;;;;4.13;1.87;;;5.50;99.90;;;;;;5035821;28;20512;-39
2023/11/08 02:15:48;;;;;;;2.47;1.83;;;5.50;99.90;;;;;;5036418;28;20554;-39
2023/11/08 02:18:15;;;;;;;4.23;2.00;;;5.60;99.90;;;;;;5036234;28;20425;-41
2023/11/08 02:20:41;;;;;;;7.97;2.60;;;5.50;99.90;;;;;;5034670;28;20472;-39
2023/11/08 02:23:07;;;;;;;4.60;1.90;;;5.60;99.90;;;;;;5036359;28;20406;-51
2023/11/08 02:25:33;;;;;;;2.97;1.83;;;5.60;99.90;;;;;;5036327;28;20431;-38
2023/11/08 02:27:58;;;;;;;2.40;1.50;;;5.60;99.90;;;;;;5035963;28;20190;-40
2023/11/08 02:30:24;;;;;;;3.50;2.13;;;5.60;99.90;;;;;;5036467;28;20256;-39
2023/11/08 02:32:51;;;;;;;5.70;2.17;;;5.50;99.90;;;;;;5036261;28;20194;-41
2023/11/08 02:35:17;;;;;;;2.60;1.60;;;5.60;99.90;;;;;;5035171;28;20523;-39
2023/11/08 02:37:46;;;;;;;4.60;2.03;;;5.60;99.90;;;;;;5036012;28;20429;-39
2023/11/08 02:40:13;;;;;;;2.77;1.83;;;5.60;99.90;;;;;;5036558;28;20473;-40
2023/11/08 02:42:43;;;;;;;5.00;1.83;;;5.60;99.90;;;;;;5035224;28;20557;-38
2023/11/08 02:45:09;;;;;;;3.50;1.53;;;5.60;99.90;;;;;;5034654;28;20440;-42
2023/11/08 02:47:35;;;;;;;4.93;1.83;;;5.60;99.90;;;;;;5036363;28;20667;-39
2023/11/08 02:50:02;;;;;;;2.87;1.77;;;5.50;99.90;;;;;;5036376;28;20417;-42
2023/11/08 02:52:28;;;;;;;4.00;2.13;;;5.50;99.90;;;;;;5035235;28;20731;-40
2023/11/08 02:54:53;;;;;;;6.30;2.30;;;5.50;99.90;;;;;;5036435;28;20467;-40
2023/11/08 02:57:19;;;;;;;3.40;2.00;;;5.50;99.90;;;;;;5035722;28;20272;-40
2023/11/08 02:59:46;;;;;;;4.33;2.57;;;5.50;99.90;;;;;;5035772;28;20524;-41
2023/11/08 03:02:12;;;;;;;3.30;2.37;;;5.50;99.90;;;;;;5035596;28;20413;-41
2023/11/08 03:04:38;;;;;;;2.57;1.83;;;5.50;99.90;;;;;;5034715;28;20422;-42
2023/11/08 03:07:04;;;;;;;5.93;2.00;;;5.50;99.90;;;;;;5036080;28;20194;-37
2023/11/08 03:09:30;;;;;;;2.33;1.80;;;5.50;99.90;;;;;;5034798;28;20896;-38
2023/11/08 03:11:58;;;;;;;3.87;2.00;;;5.50;99.90;;;;;;5035554;28;20456;-39
2023/11/08 03:14:26;;;;;;;6.00;1.80;;;5.60;99.90;;;;;;5034893;28;20417;-39
2023/11/08 03:16:56;;;;;;;2.80;1.87;;;5.60;99.90;;;;;;5034721;28;20440;-41
2023/11/08 03:19:21;;;;;;;2.77;2.20;;;5.60;99.90;;;;;;5050419;28;20611;-39
2023/11/08 03:21:48;;;;;;;3.37;1.80;;;5.60;99.90;;;;;;5035517;28;20429;-40
2023/11/08 03:24:14;;;;;;;3.60;2.07;;;5.60;99.90;;;;;;5034281;28;20265;-39
2023/11/08 03:26:40;;;;;;;2.97;2.07;;;5.60;99.90;;;;;;5035317;28;20438;-38
2023/11/08 03:29:06;;;;;;;3.70;2.13;;;5.70;99.90;;;;;;5035227;28;20443;-39
2023/11/08 03:31:32;;;;;;;3.47;2.20;;;5.70;99.90;;;;;;5033156;28;20437;-38
2023/11/08 03:33:58;;;;;;;3.33;2.10;;;5.70;99.90;;;;;;5034775;28;20429;-39
2023/11/08 03:36:28;;;;;;;5.37;2.50;;;5.60;99.90;;;;;;5033068;28;20480;-39
2023/11/08 03:38:55;;;;;;;2.73;2.00;;;5.60;99.90;;;;;;5032496;28;20437;-41
2023/11/08 03:41:25;;;;;;;2.50;1.87;;;5.60;99.90;;;;;;5032420;28;20410;-38
2023/11/08 03:43:54;;;;;;;6.37;2.47;;;5.70;99.90;;;;;;5031618;28;20473;-38
2023/11/08 03:46:20;;;;;;;3.10;2.50;;;5.70;99.90;;;;;;5031948;28;20440;-41
2023/11/08 03:48:51;;;;;;;5.93;2.93;;;5.70;99.90;;;;;;5033362;28;20430;-41
2023/11/08 03:51:17;;;;;;;5.10;2.30;;;5.80;99.90;;;;;;5033641;28;20498;-39
2023/11/08 03:53:43;;;;;;;2.47;2.27;;;5.70;99.90;;;;;;5033172;28;20826;-39
2023/11/08 03:56:10;;;;;;;5.13;2.43;;;5.70;99.90;;;;;;5034590;28;20506;-39
2023/11/08 03:58:36;;;;;;;6.33;2.40;;;5.70;99.90;;;;;;5035284;28;20190;-38
2023/11/08 04:01:03;;;;;;;5.23;2.70;;;5.80;99.90;;;;;;5034164;28;20477;-39
2023/11/08 04:03:31;;;;;;;3.27;2.60;;;5.80;99.90;;;;;;5034408;28;20186;-40
2023/11/08 04:05:56;;;;;;;3.27;2.37;;;5.80;99.90;;;;;;5035198;28;20436;-38
2023/11/08 04:08:22;;;;;;;2.80;1.97;;;5.80;99.90;;;;;;5035366;28;20467;-39
2023/11/08 04:10:48;;;;;;;6.97;3.20;;;5.80;99.90;;;;;;5038937;28;20194;-39
2023/11/08 04:13:13;;;;;;;2.40;2.20;;;5.80;99.90;;;;;;5039146;28;20277;-41
2023/11/08 04:15:39;;;;;;;4.10;2.43;;;5.80;99.90;;;;;;5038146;28;20213;-40
2023/11/08 04:18:05;;;;;;;4.60;2.30;;;5.80;99.90;;;;;;5039087;28;20182;-40
2023/11/08 04:20:30;;;;;;;3.00;2.70;;;5.70;99.90;;;;;;5039155;28;20288;-40
2023/11/08 04:22:56;;;;;;;4.97;3.60;;;5.70;99.90;;;;;;5037955;28;20435;-39
2023/11/08 04:25:22;;;;;;;6.70;3.03;;;5.70;99.90;;;;;;5038342;28;20233;-38
2023/11/08 04:27:47;;;;;;;3.93;2.73;;;5.70;99.90;;;;;;5038883;28;20190;-39
2023/11/08 04:30:13;;;;;;;9.00;3.43;;;5.70;99.90;;;;;;5037788;28;20304;-40
2023/11/08 04:32:40;;;;;;;4.50;2.63;;;5.70;99.90;;;;;;5038549;28;20541;-40
2023/11/08 04:35:06;;;;;;;3.83;2.90;;;5.80;99.90;;;;;;5037831;28;20413;-38
2023/11/08 04:37:33;;;;;;;3.70;2.80;;;5.80;99.90;;;;;;5037836;28;20456;-41
2023/11/08 04:39:59;;;;;;;5.60;2.50;;;5.80;99.90;;;;;;5037518;28;20480;-40
2023/11/08 04:42:25;;;;;;;4.10;2.63;;;5.80;99.90;;;;;;5036879;28;20488;-39
2023/11/08 04:44:51;;;;;;;3.70;2.30;;;5.80;99.90;;;;;;5036183;28;20424;-40
2023/11/08 04:47:20;;;;;;;7.50;3.10;;;5.80;99.90;;;;;;5036854;28;20417;-39
2023/11/08 04:49:47;;;;;;;4.10;2.30;;;5.80;99.90;;;;;;5035975;28;20202;-39
2023/11/08 04:52:16;;;;;;;2.97;2.30;;;5.80;99.90;;;;;;5036748;28;20516;-40
2023/11/08 04:54:46;;;;;;;6.00;3.20;;;5.80;99.90;;;;;;5037205;28;20461;-39
2023/11/08 04:57:16;;;;;;;4.90;2.53;;;5.90;99.90;;;;;;5038300;28;20440;-39
2023/11/08 04:59:43;;;;;;;6.07;2.90;;;5.80;99.90;;;;;;5038092;28;20476;-39
2023/11/08 05:02:09;;;;;;;4.63;2.73;;;5.70;99.90;;;;;;5036794;28;20413;-42
2023/11/08 05:04:39;;;;;;;3.53;2.73;;;5.70;99.90;;;;;;5035371;28;20425;-40
2023/11/08 05:07:06;;;;;;;3.30;3.00;;;5.70;99.90;;;;;;5035079;28;20427;-39
2023/11/08 05:09:32;;;;;;;5.10;2.80;;;5.70;99.90;;;;;;5033894;28;20440;-40
2023/11/08 05:11:58;;;;;;;6.10;3.00;;;5.70;99.90;;;;;;5032470;28;20710;-39
2023/11/08 05:14:24;;;;;;;3.20;2.90;;;5.70;99.90;;;;;;5033087;28;20421;-40
2023/11/08 05:16:50;;;;;;;4.17;2.83;;;5.70;99.90;;;;;;5034120;28;20187;-41
2023/11/08 05:19:17;;;;;;;5.97;3.37;;;5.60;99.90;;;;;;5034331;28;20492;-41
2023/11/08 05:21:49;;;;;;;7.43;4.00;;;5.60;99.90;;;;;;5034432;28;20297;-39
2023/11/08 05:24:15;;;;;;;5.43;4.20;;;5.60;99.90;;;;;;5035169;28;21017;-40
2023/11/08 05:26:42;;;;;;;5.47;4.20;;;5.50;99.90;;;;;;5035529;28;20452;-41
2023/11/08 05:29:08;;;;;;;5.33;3.10;;;5.50;99.90;;;;;;5036957;28;20197;-39
2023/11/08 05:31:34;;;;;;;4.90;4.23;;;5.40;99.90;;;;;;5037877;28;20520;-39
2023/11/08 05:34:03;;;;;;;9.10;4.10;;;5.40;99.90;;;;;;5036570;28;20331;-42
2023/11/08 05:36:29;;;;;;;4.77;4.10;;;5.30;99.90;;;;;;5037022;28;20277;-40
2023/11/08 05:38:58;;;;;;;8.57;4.07;;;5.30;99.90;;;;;;5035132;28;20481;-39
2023/11/08 05:41:24;;;;;;;4.93;3.77;;;5.40;99.90;;;;;;5035584;28;20991;-42
2023/11/08 05:43:53;;;;;;;5.73;2.90;;;5.30;99.90;;;;;;5035942;28;20554;-40
2023/11/08 05:46:19;;;;;;;6.60;3.80;;;5.30;99.90;;;;;;5035700;28;20349;-39
2023/11/08 05:48:45;;;;;;;7.70;3.33;;;5.30;99.90;;;;;;5035829;28;20945;-39
2023/11/08 05:51:11;;;;;;;4.97;3.60;;;5.30;99.90;;;;;;5036336;28;20278;-40
2023/11/08 05:53:39;;;;;;;5.77;3.93;;;5.20;99.90;;;;;;5036001;28;20464;-40
2023/11/08 05:56:06;;;;;;;4.47;3.10;;;5.20;99.90;;;;;;5034385;28;20707;-40
2023/11/08 05:58:35;;;;;;;5.80;3.97;;;5.20;99.90;;;;;;5034760;28;20472;-40
2023/11/08 06:01:05;;;;;;;7.63;3.80;;;5.10;99.90;;;;;;5032406;28;20870;-39
2023/11/08 06:03:31;;;;;;;6.50;3.93;;;5.10;99.90;;;;;;5032243;28;20421;-42
2023/11/08 06:05:57;;;;;;;4.63;3.30;;;5.20;99.90;;;;;;5034432;28;20433;-38
2023/11/08 06:08:24;;;;;;;5.90;3.60;;;5.20;99.90;;;;;;5034960;28;20194;-39
2023/11/08 06:10:50;;;;;;;5.20;3.80;;;5.20;99.90;;;;;;5034259;28;20693;-39
2023/11/08 06:13:16;;;;;;;6.10;3.67;;;5.20;99.90;;;;;;5033898;28;20461;-40
2023/11/08 06:15:42;;;;;;;6.97;4.40;;;5.20;99.90;;;;;;5033685;28;20450;-38
2023/11/08 06:18:08;;;;;;;9.10;4.30;;;5.20;99.90;;;;;;5032690;28;20523;-40
2023/11/08 06:20:35;;;;;;;4.97;3.37;;;5.30;99.90;;;;;;5030828;28;20460;-39
2023/11/08 06:23:02;;;;;;;5.20;3.83;;;5.30;99.90;;;;;;5030294;28;20413;-39
2023/11/08 06:25:32;;;;;;;4.50;3.20;;;5.30;99.90;;;;;;5028903;28;20544;-39
2023/11/08 06:27:58;;;;;;;6.20;3.87;;;5.30;99.90;;;;;;5031827;28;20425;-41
2023/11/08 06:30:24;;;;;;;4.43;3.23;;;5.20;99.90;;;;;;5030234;28;20580;-41
2023/11/08 06:32:50;;;;;;;5.17;3.50;;;5.30;99.90;;;;;;5031169;28;20720;-39
2023/11/08 06:35:15;;;;;;;6.83;2.90;;;5.30;99.90;;;;;;5032558;28;20236;-40
2023/11/08 06:37:41;;;;;;;6.83;3.30;;;5.30;99.90;;;;;;5032656;28;20198;-46
2023/11/08 06:40:09;;;;;;;5.83;3.30;;;5.30;99.90;;;;;;5033632;28;20214;-38
2023/11/08 06:42:35;;;;;;;4.87;3.27;;;5.30;99.90;;;;;;5031653;28;20234;-43
2023/11/08 06:45:03;;;;;;;4.97;2.90;;;5.30;99.90;;;;;;5031909;28;20501;-39
2023/11/08 06:47:29;;;;;;;3.33;2.80;;;5.40;99.90;;;;;;5029949;28;20410;-38
2023/11/08 06:49:55;;;;;;;6.03;3.20;;;5.40;99.90;;;;;;5033633;28;20832;-40
2023/11/08 06:52:21;;;;;;;4.10;2.63;;;5.50;99.90;;;;;;5031334;28;20460;-41
2023/11/08 06:54:47;;;;;;;5.30;3.37;;;5.50;99.90;;;;;;5029784;28;20425;-40
2023/11/08 06:57:13;;;;;;;5.73;3.57;;;5.70;99.90;;;;;;5031917;28;20222;-39
2023/11/08 06:59:39;;;;;;;4.47;2.73;;;6.00;1.00;;;;;;5032530;28;20473;-39
2023/11/08 07:02:06;;;;;;;3.20;2.47;;;6.20;1.00;;;;;;5032804;28;20205;-38
2023/11/08 07:04:31;;;;;;;14.03;3.40;;;6.60;99.90;;;;;;5032885;28;20541;-42
2023/11/08 07:06:59;;;;;;;3.13;2.83;;;6.80;99.90;;;;;;5032348;28;20662;-39
2023/11/08 07:09:24;;;;;;;4.93;2.63;;;6.90;1.00;;;;;;5033775;28;20206;-41
2023/11/08 07:11:50;;;;;;;5.97;3.63;;;7.10;1.00;;;;;;5033104;28;20724;-39
2023/11/08 07:14:16;;;;;;;2.83;2.07;;;7.20;1.00;;;;;;5034233;28;20179;-40
2023/11/08 07:16:43;;;;;;;3.20;2.27;;;7.30;99.90;;;;;;5033521;28;20417;-39
2023/11/08 07:19:09;;;;;;;6.20;2.50;;;7.50;43.20;;;;;;5034118;28;20194;-39
2023/11/08 07:21:34;;;;;;;5.00;2.30;;;7.40;99.90;;;;;;5034709;28;20513;-42
2023/11/08 07:24:00;;;;;;;5.07;2.63;;;7.60;99.90;;;;;;5035086;28;20288;-39
2023/11/08 07:26:26;;;;;;;4.20;2.53;;;7.80;1.00;;;;;;5035091;28;20190;-39
2023/11/08 07:28:52;;;;;;;3.33;2.17;;;7.90;1.00;;;;;;5034959;28;20883;-40
2023/11/08 07:31:17;;;;;;;2.63;1.87;;;8.10;85.70;;;;;;5034471;28;20267;-41
2023/11/08 07:33:43;;;;;;;3.27;1.73;;;8.30;99.90;;;;;;5031841;28;20295;-39
2023/11/08 07:36:09;;;;;;;3.67;1.97;;;8.30;99.90;;;;;;5031329;28;20484;-40
2023/11/08 07:38:35;;;;;;;3.57;1.87;;;8.40;99.90;;;;;;5031688;28;20182;-39
2023/11/08 07:41:02;;;;;;;3.13;2.63;;;8.40;37.60;;;;;;5031886;28;20221;-39
2023/11/08 07:43:29;;;;;;;4.20;1.90;;;8.70;1.00;;;;;;5033502;28;20488;-40
2023/11/08 07:45:55;;;;;;;4.53;1.90;;;9.20;1.00;;;;;;5038301;28;20487;-38
2023/11/08 07:48:20;;;;;;;6.07;1.57;;;9.60;99.90;;;;;;5038888;28;20440;-39
2023/11/08 07:50:46;;;;;;;4.00;1.70;;;9.80;1.00;;;;;;5038901;28;20442;-39
2023/11/08 07:53:12;;;;;;;3.97;1.83;;;9.80;1.00;;;;;;5038709;28;20532;-40
2023/11/08 07:55:38;;;;;;;3.60;1.80;;;9.90;99.90;;;;;;5037962;28;20280;-37
2023/11/08 07:58:03;;;;;;;3.50;1.70;;;9.80;99.90;;;;;;5037008;28;20595;-38
2023/11/08 08:00:31;;;;;;;2.97;2.00;;;9.70;1.00;;;;;;5036206;28;20328;-39
2023/11/08 08:02:57;;;;;;;2.37;1.73;;;10.00;99.90;;;;;;5037102;28;20194;-39
2023/11/08 08:05:23;;;;;;;1.93;1.33;;;9.90;99.90;;;;;;5036398;28;20505;-38
2023/11/08 08:07:51;;;;;;;1.70;1.40;;;10.20;24.20;;;;;;5037391;28;20431;-40
2023/11/08 08:10:17;;;;;;;2.90;1.43;;;10.80;1.00;;;;;;5038542;28;20199;-38
2023/11/08 08:12:43;;;;;;;3.27;1.60;;;11.10;99.90;;;;;;5035988;28;20432;-40
2023/11/08 08:15:09;;;;;;;2.03;1.80;;;11.90;1.00;;;;;;5036550;28;20448;-41
2023/11/08 08:17:35;;;;;;;4.10;1.90;;;12.60;99.90;;;;;;5036920;28;20190;-43
2023/11/08 08:20:04;;;;;;;4.67;1.50;;;12.50;99.90;;;;;;5036506;28;20476;-40
2023/11/08 08:22:31;;;;;;;1.87;1.20;;;13.40;99.90;;;;;;5036554;28;20205;-41
2023/11/08 08:24:56;;;;;;;2.20;1.40;;;13.80;99.90;;;;;;5038774;28;20517;-42
2023/11/08 08:27:23;;;;;;;2.00;1.60;;;14.20;58.60;;;;;;5052850;28;20531;-36
2023/11/08 08:29:49;;;;;;;4.23;1.40;;;14.30;6.60;;;;;;5036260;28;20189;-38
2023/11/08 08:32:15;;;;;;;2.13;1.40;;;14.30;1.00;;;;;;5037167;28;20410;-38
2023/11/08 08:34:41;;;;;;;2.00;1.37;;;14.90;1.00;;;;;;5036682;28;20607;-37
2023/11/08 08:37:07;;;;;;;3.77;1.40;;;15.40;1.00;;;;;;5050724;28;20288;-38
2023/11/08 08:39:32;;;;;;;5.13;1.57;;;15.60;1.00;;;;;;5034451;28;20214;-39
2023/11/08 08:41:59;;;;;;;2.23;1.50;;;15.50;1.00;;;;;;5035488;28;20488;-39
2023/11/08 08:44:25;;;;;;;2.93;1.57;;;16.40;1.00;;;;;;5051727;28;20534;-40
2023/11/08 08:46:51;;;;;;;3.40;1.50;;;16.50;1.00;;;;;;5034766;28;20773;-37
2023/11/08 08:49:18;;;;;;;3.90;1.77;;;16.50;1.00;;;;;;5035217;28;20316;-41
2023/11/08 08:51:43;;;;;;;3.00;1.70;;;16.90;1.00;;;;;;5035227;28;20614;-37
2023/11/08 08:54:10;;;;;;;7.10;1.50;;;17.40;1.00;;;;;;5032877;28;20523;-40
2023/11/08 08:56:37;;;;;;;4.10;1.60;;;18.50;1.00;;;;;;5033221;28;20175;-37
2023/11/08 08:59:02;;;;;;;4.87;2.60;;;19.40;1.00;;;;;;5034751;28;20420;-38
2023/11/08 09:01:29;;;;;;;3.73;1.27;;;20.20;1.00;;;;;;5035220;28;20703;-42
2023/11/08 09:03:54;;;;;;;2.53;1.20;;;21.60;1.00;;;;;;5034532;28;20190;-37
2023/11/08 09:06:20;;;;;;;2.63;1.40;;;23.10;1.00;;;;;;5033703;28;20421;-40
2023/11/08 09:08:47;;;;;;;3.13;1.40;;;24.30;1.00;;;;;;5034841;28;20175;-40
2023/11/08 09:11:13;;;;;;;3.63;1.27;;;25.50;1.00;;;;;;5052710;28;20194;-38
2023/11/08 09:13:38;;;;;;;2.10;1.50;;;26.50;1.00;;;;;;5034790;28;20565;-40
2023/11/08 09:16:07;;;;;;;3.60;1.20;;;27.30;1.00;;;;;;5034988;28;20472;-39
2023/11/08 09:18:33;;;;;;;2.87;1.30;;;28.00;1.00;;;;;;5035813;28;20568;-42
2023/11/08 09:20:59;;;;;;;3.00;1.13;;;28.60;1.00;;;;;;5034922;28;20476;-39
2023/11/08 09:23:28;;;;;;;2.27;1.17;;;28.90;1.00;;;;;;5036043;28;20420;-41
2023/11/08 09:25:56;;;;;;;3.27;1.50;;;29.40;1.00;;;;;;5034323;28;20430;-40
2023/11/08 09:28:22;;;;;;;4.50;1.40;;;29.90;1.00;;;;;;5037820;28;20724;-46
2023/11/08 09:30:48;;;;;;;3.83;2.10;;;30.10;1.00;;;;;;5035092;28;20460;-46
2023/11/08 09:33:13;;;;;;;3.93;1.30;;;30.90;1.00;;;;;;5035024;28;20580;-45
2023/11/08 09:35:39;;;;;;;2.70;1.73;;;31.40;1.00;;;;;;5033446;28;20187;-46
2023/11/08 09:38:05;;;;;;;2.20;1.27;;;32.00;1.00;;;;;;5032155;28;20175;-45
2023/11/08 09:40:31;;;;;;;3.63;1.33;;;32.40;1.00;;;;;;5033606;28;20249;-45
2023/11/08 09:42:58;;;;;;;2.80;1.30;;;32.80;1.00;;;;;;5034917;28;20218;-45
2023/11/08 09:45:27;;;;;;;3.10;1.70;;;33.00;1.00;;;;;;5034296;28;20499;-44
2023/11/08 09:47:53;;;;;;;2.27;1.10;;;33.30;1.00;;;;;;5014813;28;20488;-45
2023/11/08 09:50:20;;;;;;;2.77;1.23;;;33.20;1.00;;;;;;5033095;28;20584;-46
2023/11/08 09:52:46;;;;;;;2.13;1.10;;;32.60;1.00;;;;;;5016415;28;20233;-45
2023/11/08 09:55:12;;;;;;;2.17;1.10;;;32.50;1.00;;;;;;5035547;28;20797;-46
2023/11/08 09:57:39;;;;;;;3.00;1.37;;;32.40;1.00;;;;;;5033303;28;20189;-46
2023/11/08 10:00:06;;;;;;;2.50;1.30;;;31.50;1.00;;;;;;5034217;28;20451;-47
2023/11/08 10:02:33;;;;;;;6.20;1.17;;;30.10;1.00;;;;;;5036594;28;20411;-45
2023/11/08 10:04:59;;;;;;;3.30;1.13;;;29.00;1.00;;;;;;5017659;28;20441;-45
2023/11/08 10:07:25;;;;;;;2.90;1.10;;;28.30;1.00;;;;;;5016834;28;20698;-45
2023/11/08 10:09:50;;;;;;;2.60;1.17;;;27.70;1.00;;;;;;5017618;28;20507;-45
2023/11/08 10:12:20;;;;;;;2.53;1.20;;;27.50;1.00;;;;;;5035495;28;20523;-45
2023/11/08 10:14:46;;;;;;;2.10;1.10;;;27.40;1.00;;;;;;5035086;28;20282;-45
2023/11/08 10:17:11;;;;;;;1.90;1.00;;;27.50;1.00;;;;;;5017355;28;20520;-45
2023/11/08 10:19:45;;;;;;;2.67;1.27;;;27.70;1.00;;;;;;5034023;28;20508;-45
2023/11/08 10:22:18;;;;;;;2.47;1.43;;;28.20;1.00;;;;;;5033942;28;20274;-45
2023/11/08 10:25:04;;;;;;;2.47;0.90;;;28.30;1.00;;;;;;5032001;28;20453;-45
2023/11/08 10:27:31;;;;;;;6.73;1.60;;;28.20;1.00;;;;;;5034110;28;20542;-45
2023/11/08 10:30:20;;;;;;;2.50;1.50;;;27.60;1.00;;;;;;5032855;28;20432;-46
2023/11/08 10:32:47;;;;;;;1.53;1.00;;;26.80;1.00;;;;;;5022851;28;20459;-45
2023/11/08 10:35:19;;;;;;;2.70;1.20;;;25.90;1.00;;;;;;5014477;28;20690;-46
2023/11/08 10:37:45;;;;;;;4.03;1.40;;;25.10;1.00;;;;;;5031652;28;20619;-46
2023/11/08 10:40:13;;;;;;;1.60;1.00;;;24.50;1.00;;;;;;5030024;28;20652;-46
2023/11/08 10:42:50;;;;;;;3.00;1.10;;;23.80;1.00;;;;;;5032486;28;20496;-46
2023/11/08 10:45:15;;;;;;;1.90;1.10;;;23.20;1.00;;;;;;5030507;28;20433;-45
2023/11/08 10:47:41;;;;;;;1.73;1.03;;;22.80;1.00;;;;;;5031248;28;20858;-45
2023/11/08 10:50:11;;;;;;;4.27;1.43;;;22.10;1.00;;;;;;5032541;28;20556;-45
2023/11/08 10:52:39;;;;;;;3.50;1.20;;;21.50;1.00;;;;;;5032083;28;20202;-44
2023/11/08 10:55:06;;;;;;;1.97;1.20;;;21.00;1.00;;;;;;5032640;28;20674;-46
2023/11/08 10:57:33;;;;;;;1.50;0.93;;;21.70;1.00;;;;;;5031779;28;20447;-47
2023/11/08 11:00:04;;;;;;;2.40;1.00;;;22.10;1.00;;;;;;5032936;28;20542;-46
2023/11/08 11:02:39;;;;;;;3.47;1.00;;;21.80;1.00;;;;;;5015704;28;20624;-47
2023/11/08 11:05:10;;;;;;;1.73;1.13;;;21.40;1.00;;;;;;5033753;28;20417;-44
2023/11/08 11:07:42;;;;;;;3.40;1.50;;;21.00;1.00;;;;;;5033969;28;20420;-45
2023/11/08 11:10:13;;;;;;;2.80;1.00;;;20.50;1.00;;;;;;5030564;28;20429;-45
2023/11/08 11:13:11;;;;;;;1.93;0.90;;;20.30;1.00;;;;;;5032366;28;20425;-45
2023/11/08 11:15:54;;;;;;;2.13;1.03;;;20.20;1.00;;;;;;5002116;28;20437;-46
2023/11/08 11:18:25;;;;;;;1.50;0.83;;;20.40;1.00;;;;;;5015691;28;20451;-47
2023/11/08 11:21:01;;;;;;;1.67;0.90;;;20.30;1.00;;;;;;4999548;28;20489;-46
2023/11/08 11:23:34;;;;;;;1.53;0.80;;;20.10;1.00;;;;;;5015584;28;20416;-49
2023/11/08 11:26:01;;;;;;;1.47;0.83;;;19.80;1.00;;;;;;5016917;28;20413;-47
2023/11/08 11:28:52;;;;;;;2.80;0.70;;;19.20;1.00;;;;;;5031349;28;20432;-46
2023/11/08 11:31:33;;;;;;;1.77;1.20;;;18.40;1.00;;;;;;5032517;28;20436;-46
2023/11/08 11:34:01;;;;;;;1.07;0.60;;;18.20;1.00;;;;;;5016290;28;20696;-46
2023/11/08 11:36:26;;;;;;;2.10;0.60;;;18.10;1.00;;;;;;5033908;28;20924;-46
2023/11/08 11:39:12;;;;;;;3.00;0.90;;;18.20;1.00;;;;;;5033545;28;20425;-48
2023/11/08 11:41:37;;;;;;;1.80;1.00;;;18.50;1.00;;;;;;5033237;28;20190;-46
2023/11/08 11:44:06;;;;;;;5.03;0.70;;;18.80;1.00;;;;;;5032305;28;20818;-46
2023/11/08 11:46:35;;;;;;;3.13;0.90;;;19.60;1.00;;;;;;5013603;28;20191;-46
2023/11/08 11:49:11;;;;;;;1.20;0.70;;;20.00;1.00;;;;;;5014477;28;20499;-46
2023/11/08 11:51:38;;;;;;;1.17;0.70;;;20.20;1.00;;;;;;5014219;28;20916;-48
2023/11/08 11:54:04;;;;;;;1.50;0.80;;;20.10;1.00;;;;;;5014306;28;20431;-46
2023/11/08 11:56:31;;;;;;;1.30;0.60;;;20.10;1.00;;;;;;5033097;28;20554;-46
2023/11/08 11:58:58;;;;;;;1.10;0.50;;;20.20;1.00;;;;;;5012118;28;20847;-46
2023/11/08 12:01:24;;;;;;;1.10;0.60;;;21.50;1.00;;;;;;5030017;28;20546;-46
2023/11/08 12:03:50;;;;;;;1.00;0.43;;;22.30;1.00;;;;;;5032246;28;20437;-47
2023/11/08 12:06:16;;;;;;;1.03;0.57;;;22.40;1.00;;;;;;5031359;28;20460;-39
2023/11/08 12:08:41;;;;;;;1.17;0.70;;;22.20;1.00;;;;;;5032658;28;20445;-40
2023/11/08 12:11:17;;;;;;;0.90;0.40;;;22.00;1.00;;;;;;5032059;28;20408;-42
2023/11/08 12:14:09;;;;;;;1.50;0.77;;;21.70;1.00;;;;;;5032997;28;20197;-40
2023/11/08 12:16:38;;;;;;;1.67;0.60;;;21.20;1.00;;;;;;5029434;28;20554;-39
2023/11/08 12:19:05;;;;;;;1.10;0.50;;;20.70;1.00;;;;;;5044681;28;20676;-39
2023/11/08 12:21:31;;;;;;;1.70;0.60;;;21.20;1.00;;;;;;5027399;28;20779;-40
2023/11/08 12:23:56;;;;;;;1.33;0.70;;;21.90;1.00;;;;;;5028643;28;20551;-39
2023/11/08 12:26:22;;;;;;;1.00;0.60;;;22.50;1.00;;;;;;5028309;28;20198;-41
2023/11/08 12:28:48;;;;;;;1.07;0.57;;;23.50;1.00;;;;;;5030125;28;20198;-40
2023/11/08 12:31:20;;;;;;;1.93;0.60;;;24.30;1.00;;;;;;5033572;28;20185;-44
2023/11/08 12:33:46;;;;;;;1.00;0.50;;;25.40;1.00;;;;;;5033527;28;20488;-39
2023/11/08 12:36:12;;;;;;;1.40;0.80;;;26.30;1.00;;;;;;5034260;28;20494;-38
2023/11/08 12:38:40;;;;;;;1.20;0.70;;;26.80;1.00;;;;;;5016341;28;20854;-39
2023/11/08 12:41:07;;;;;;;1.30;0.60;;;26.60;1.00;;;;;;5033986;28;20912;-39
2023/11/08 12:43:33;;;;;;;1.17;0.60;;;26.00;1.00;;;;;;5036057;28;20480;-39
2023/11/08 12:46:05;;;;;;;1.60;0.70;;;25.50;1.00;;;;;;5036325;28;20429;-41
2023/11/08 12:48:33;;;;;;;1.40;0.80;;;25.20;1.00;;;;;;5035983;28;20420;-39
2023/11/08 12:51:04;;;;;;;2.50;0.70;;;25.20;1.00;;;;;;5035754;28;20850;-43
2023/11/08 12:53:33;;;;;;;1.50;0.80;;;24.90;1.00;;;;;;5035577;28;20421;-39
2023/11/08 12:56:08;;;;;;;1.50;0.90;;;24.40;1.00;;;;;;5018620;28;20421;-39
2023/11/08 12:58:34;;;;;;;2.90;0.87;;;23.70;1.00;;;;;;5016388;28;20529;-40